sensor_id;sensor_type;location;lat;lon;timestamp;P1;durP1;ratioP1;P2;durP2;ratioP2
16099;SDS011;8154;50.830;12.082;2022-09-02T00:02:05;2.00;;;1.50;;
16099;SDS011;8154;50.830;12.082;2022-09-02T00:04:50;1.70;;;1.45;;
16099;SDS011;8154;50.830;12.082;2022-09-02T00:07:35;1.50;;;1.40;;
16099;SDS011;8154;50.830;12.082;2022-09-02T00:10:19;1.67;;;1.30;;
16099;SDS011;8154;50.830;12.082;2022-09-02T00:13:03;1.45;;;1.33;;
16099;SDS011;8154;50.830;12.082;2022-09-02T00:15:49;1.40;;;1.30;;
16099;SDS011;8154;50.830;12.082;2022-09-02T00:18:34;1.50;;;1.40;;
16099;SDS011;8154;50.830;12.082;2022-09-02T00:21:19;2.08;;;1.40;;
16099;SDS011;8154;50.830;12.082;2022-09-02T00:24:04;1.40;;;1.30;;
16099;SDS011;8154;50.830;12.082;2022-09-02T00:26:50;2.28;;;1.40;;
16099;SDS011;8154;50.830;12.082;2022-09-02T00:29:34;1.40;;;1.30;;
16099;SDS011;8154;50.830;12.082;2022-09-02T00:32:19;2.08;;;1.30;;
16099;SDS011;8154;50.830;12.082;2022-09-02T00:35:03;2.40;;;1.50;;
16099;SDS011;8154;50.830;12.082;2022-09-02T00:37:48;1.67;;;1.40;;
16099;SDS011;8154;50.830;12.082;2022-09-02T00:40:33;2.50;;;1.42;;
16099;SDS011;8154;50.830;12.082;2022-09-02T00:43:23;1.38;;;1.20;;
16099;SDS011;8154;50.830;12.082;2022-09-02T00:46:11;2.13;;;1.40;;
16099;SDS011;8154;50.830;12.082;2022-09-02T00:52:10;1.67;;;1.40;;
16099;SDS011;8154;50.830;12.082;2022-09-02T00:55:00;1.55;;;1.38;;
16099;SDS011;8154;50.830;12.082;2022-09-02T00:57:49;1.40;;;1.30;;
16099;SDS011;8154;50.830;12.082;2022-09-02T01:00:40;1.50;;;1.30;;
16099;SDS011;8154;50.830;12.082;2022-09-02T01:03:28;2.17;;;1.30;;
16099;SDS011;8154;50.830;12.082;2022-09-02T01:06:17;1.42;;;1.33;;
16099;SDS011;8154;50.830;12.082;2022-09-02T01:09:06;1.40;;;1.30;;
16099;SDS011;8154;50.830;12.082;2022-09-02T01:11:55;1.38;;;1.27;;
16099;SDS011;8154;50.830;12.082;2022-09-02T01:14:39;1.30;;;1.20;;
16099;SDS011;8154;50.830;12.082;2022-09-02T01:17:24;1.23;;;1.13;;
16099;SDS011;8154;50.830;12.082;2022-09-02T01:20:13;1.40;;;1.30;;
16099;SDS011;8154;50.830;12.082;2022-09-02T01:23:04;1.40;;;1.30;;
16099;SDS011;8154;50.830;12.082;2022-09-02T01:25:48;1.40;;;1.30;;
16099;SDS011;8154;50.830;12.082;2022-09-02T01:28:34;2.70;;;1.33;;
16099;SDS011;8154;50.830;12.082;2022-09-02T01:31:18;1.77;;;1.20;;
16099;SDS011;8154;50.830;12.082;2022-09-02T01:34:03;1.40;;;1.30;;
16099;SDS011;8154;50.830;12.082;2022-09-02T01:36:49;1.50;;;1.40;;
16099;SDS011;8154;50.830;12.082;2022-09-02T01:39:34;1.67;;;1.30;;
16099;SDS011;8154;50.830;12.082;2022-09-02T01:42:19;2.35;;;1.33;;
16099;SDS011;8154;50.830;12.082;2022-09-02T01:45:05;1.40;;;1.30;;
16099;SDS011;8154;50.830;12.082;2022-09-02T01:47:51;1.77;;;1.30;;
16099;SDS011;8154;50.830;12.082;2022-09-02T01:50:36;1.40;;;1.30;;
16099;SDS011;8154;50.830;12.082;2022-09-02T01:53:23;1.50;;;1.40;;
16099;SDS011;8154;50.830;12.082;2022-09-02T01:56:07;1.77;;;1.30;;
16099;SDS011;8154;50.830;12.082;2022-09-02T01:58:51;1.98;;;1.40;;
16099;SDS011;8154;50.830;12.082;2022-09-02T02:01:36;2.75;;;1.40;;
16099;SDS011;8154;50.830;12.082;2022-09-02T02:04:20;1.98;;;1.33;;
16099;SDS011;8154;50.830;12.082;2022-09-02T02:07:07;1.15;;;1.13;;
16099;SDS011;8154;50.830;12.082;2022-09-02T02:09:52;1.50;;;1.20;;
16099;SDS011;8154;50.830;12.082;2022-09-02T02:12:37;1.88;;;1.38;;
16099;SDS011;8154;50.830;12.082;2022-09-02T02:15:22;1.95;;;1.30;;
16099;SDS011;8154;50.830;12.082;2022-09-02T02:18:07;1.70;;;1.40;;
16099;SDS011;8154;50.830;12.082;2022-09-02T02:20:52;1.77;;;1.38;;
16099;SDS011;8154;50.830;12.082;2022-09-02T02:23:37;1.40;;;1.30;;
16099;SDS011;8154;50.830;12.082;2022-09-02T02:26:22;1.55;;;1.40;;
16099;SDS011;8154;50.830;12.082;2022-09-02T02:29:06;1.40;;;1.30;;
16099;SDS011;8154;50.830;12.082;2022-09-02T02:31:50;2.08;;;1.30;;
16099;SDS011;8154;50.830;12.082;2022-09-02T02:34:35;1.42;;;1.33;;
16099;SDS011;8154;50.830;12.082;2022-09-02T02:37:20;1.65;;;1.40;;
16099;SDS011;8154;50.830;12.082;2022-09-02T02:40:05;1.50;;;1.40;;
16099;SDS011;8154;50.830;12.082;2022-09-02T02:42:51;1.63;;;1.30;;
16099;SDS011;8154;50.830;12.082;2022-09-02T02:45:36;1.45;;;1.35;;
16099;SDS011;8154;50.830;12.082;2022-09-02T02:48:21;1.85;;;1.30;;
16099;SDS011;8154;50.830;12.082;2022-09-02T02:51:06;1.45;;;1.35;;
16099;SDS011;8154;50.830;12.082;2022-09-02T02:53:51;2.63;;;1.30;;
16099;SDS011;8154;50.830;12.082;2022-09-02T02:56:35;1.30;;;1.20;;
16099;SDS011;8154;50.830;12.082;2022-09-02T02:59:19;1.38;;;1.25;;
16099;SDS011;8154;50.830;12.082;2022-09-02T03:02:04;1.52;;;1.40;;
16099;SDS011;8154;50.830;12.082;2022-09-02T03:04:49;1.58;;;1.23;;
16099;SDS011;8154;50.830;12.082;2022-09-02T03:07:35;2.33;;;1.30;;
16099;SDS011;8154;50.830;12.082;2022-09-02T03:10:20;3.45;;;1.55;;
16099;SDS011;8154;50.830;12.082;2022-09-02T03:13:05;1.58;;;1.40;;
16099;SDS011;8154;50.830;12.082;2022-09-02T03:15:49;1.70;;;1.40;;
16099;SDS011;8154;50.830;12.082;2022-09-02T03:18:35;2.67;;;1.35;;
16099;SDS011;8154;50.830;12.082;2022-09-02T03:21:19;2.10;;;1.40;;
16099;SDS011;8154;50.830;12.082;2022-09-02T03:24:03;1.20;;;1.15;;
16099;SDS011;8154;50.830;12.082;2022-09-02T03:26:47;1.48;;;1.30;;
16099;SDS011;8154;50.830;12.082;2022-09-02T03:29:32;1.95;;;1.33;;
16099;SDS011;8154;50.830;12.082;2022-09-02T03:32:16;2.60;;;1.38;;
16099;SDS011;8154;50.830;12.082;2022-09-02T03:35:01;1.50;;;1.40;;
16099;SDS011;8154;50.830;12.082;2022-09-02T03:37:50;1.38;;;1.20;;
16099;SDS011;8154;50.830;12.082;2022-09-02T03:40:35;2.03;;;1.30;;
16099;SDS011;8154;50.830;12.082;2022-09-02T03:43:20;1.40;;;1.30;;
16099;SDS011;8154;50.830;12.082;2022-09-02T03:46:05;2.03;;;1.25;;
16099;SDS011;8154;50.830;12.082;2022-09-02T03:48:49;1.60;;;1.40;;
16099;SDS011;8154;50.830;12.082;2022-09-02T03:51:34;1.60;;;1.33;;
16099;SDS011;8154;50.830;12.082;2022-09-02T03:54:23;1.48;;;1.38;;
16099;SDS011;8154;50.830;12.082;2022-09-02T03:57:07;1.55;;;1.20;;
16099;SDS011;8154;50.830;12.082;2022-09-02T03:59:51;1.42;;;1.33;;
16099;SDS011;8154;50.830;12.082;2022-09-02T04:02:36;1.55;;;1.40;;
16099;SDS011;8154;50.830;12.082;2022-09-02T04:05:21;2.20;;;1.30;;
16099;SDS011;8154;50.830;12.082;2022-09-02T04:08:06;1.60;;;1.35;;
16099;SDS011;8154;50.830;12.082;2022-09-02T04:10:50;2.20;;;1.15;;
16099;SDS011;8154;50.830;12.082;2022-09-02T04:13:35;1.30;;;1.20;;
16099;SDS011;8154;50.830;12.082;2022-09-02T04:16:21;3.47;;;1.45;;
16099;SDS011;8154;50.830;12.082;2022-09-02T04:19:11;1.70;;;1.40;;
16099;SDS011;8154;50.830;12.082;2022-09-02T04:21:56;1.52;;;1.30;;
16099;SDS011;8154;50.830;12.082;2022-09-02T04:24:40;2.33;;;1.30;;
16099;SDS011;8154;50.830;12.082;2022-09-02T04:27:24;1.40;;;1.30;;
16099;SDS011;8154;50.830;12.082;2022-09-02T04:30:09;1.40;;;1.30;;
16099;SDS011;8154;50.830;12.082;2022-09-02T04:32:54;2.03;;;1.25;;
16099;SDS011;8154;50.830;12.082;2022-09-02T04:35:39;3.10;;;1.38;;
16099;SDS011;8154;50.830;12.082;2022-09-02T04:38:24;1.42;;;1.30;;
16099;SDS011;8154;50.830;12.082;2022-09-02T04:41:10;1.50;;;1.40;;
16099;SDS011;8154;50.830;12.082;2022-09-02T04:43:57;1.52;;;1.30;;
16099;SDS011;8154;50.830;12.082;2022-09-02T04:46:42;1.70;;;1.33;;
16099;SDS011;8154;50.830;12.082;2022-09-02T04:49:27;2.47;;;1.42;;
16099;SDS011;8154;50.830;12.082;2022-09-02T04:52:15;2.70;;;1.20;;
16099;SDS011;8154;50.830;12.082;2022-09-02T04:54:59;1.50;;;1.40;;
16099;SDS011;8154;50.830;12.082;2022-09-02T04:57:43;2.10;;;1.40;;
16099;SDS011;8154;50.830;12.082;2022-09-02T05:00:27;1.50;;;1.40;;
16099;SDS011;8154;50.830;12.082;2022-09-02T05:03:13;1.50;;;1.40;;
16099;SDS011;8154;50.830;12.082;2022-09-02T05:05:58;1.58;;;1.40;;
16099;SDS011;8154;50.830;12.082;2022-09-02T05:08:47;2.00;;;1.40;;
16099;SDS011;8154;50.830;12.082;2022-09-02T05:11:32;2.10;;;1.30;;
16099;SDS011;8154;50.830;12.082;2022-09-02T05:14:17;2.33;;;1.70;;
16099;SDS011;8154;50.830;12.082;2022-09-02T05:17:02;1.40;;;1.30;;
16099;SDS011;8154;50.830;12.082;2022-09-02T05:19:47;1.50;;;1.40;;
16099;SDS011;8154;50.830;12.082;2022-09-02T05:22:32;2.45;;;1.50;;
16099;SDS011;8154;50.830;12.082;2022-09-02T05:25:17;1.55;;;1.45;;
16099;SDS011;8154;50.830;12.082;2022-09-02T05:28:02;2.13;;;1.50;;
16099;SDS011;8154;50.830;12.082;2022-09-02T05:30:47;2.53;;;1.63;;
16099;SDS011;8154;50.830;12.082;2022-09-02T05:33:32;2.15;;;1.60;;
16099;SDS011;8154;50.830;12.082;2022-09-02T05:36:21;1.98;;;1.33;;
16099;SDS011;8154;50.830;12.082;2022-09-02T05:39:06;1.40;;;1.30;;
16099;SDS011;8154;50.830;12.082;2022-09-02T05:41:52;1.83;;;1.50;;
16099;SDS011;8154;50.830;12.082;2022-09-02T05:44:36;2.03;;;1.55;;
16099;SDS011;8154;50.830;12.082;2022-09-02T05:47:21;2.03;;;1.40;;
16099;SDS011;8154;50.830;12.082;2022-09-02T05:50:08;1.85;;;1.67;;
16099;SDS011;8154;50.830;12.082;2022-09-02T05:52:52;3.47;;;1.80;;
16099;SDS011;8154;50.830;12.082;2022-09-02T05:55:36;1.70;;;1.60;;
16099;SDS011;8154;50.830;12.082;2022-09-02T05:58:21;3.30;;;1.70;;
16099;SDS011;8154;50.830;12.082;2022-09-02T06:01:06;2.33;;;1.80;;
16099;SDS011;8154;50.830;12.082;2022-09-02T06:03:52;2.00;;;1.70;;
16099;SDS011;8154;50.830;12.082;2022-09-02T06:06:36;3.50;;;1.75;;
16099;SDS011;8154;50.830;12.082;2022-09-02T06:09:24;1.95;;;1.58;;
16099;SDS011;8154;50.830;12.082;2022-09-02T06:12:08;1.77;;;1.67;;
16099;SDS011;8154;50.830;12.082;2022-09-02T06:14:52;3.75;;;1.80;;
16099;SDS011;8154;50.830;12.082;2022-09-02T06:17:36;2.30;;;2.08;;
16099;SDS011;8154;50.830;12.082;2022-09-02T06:20:20;2.25;;;2.03;;
16099;SDS011;8154;50.830;12.082;2022-09-02T06:23:04;3.05;;;1.70;;
16099;SDS011;8154;50.830;12.082;2022-09-02T06:25:49;2.60;;;2.03;;
16099;SDS011;8154;50.830;12.082;2022-09-02T06:28:33;1.77;;;1.67;;
16099;SDS011;8154;50.830;12.082;2022-09-02T06:31:19;2.60;;;1.80;;
16099;SDS011;8154;50.830;12.082;2022-09-02T06:34:05;2.85;;;1.90;;
16099;SDS011;8154;50.830;12.082;2022-09-02T06:36:49;2.00;;;1.80;;
16099;SDS011;8154;50.830;12.082;2022-09-02T06:39:33;2.88;;;1.90;;
16099;SDS011;8154;50.830;12.082;2022-09-02T06:42:18;2.00;;;1.80;;
16099;SDS011;8154;50.830;12.082;2022-09-02T06:45:03;2.15;;;1.88;;
16099;SDS011;8154;50.830;12.082;2022-09-02T06:47:47;2.97;;;2.00;;
16099;SDS011;8154;50.830;12.082;2022-09-02T06:50:32;2.00;;;1.88;;
16099;SDS011;8154;50.830;12.082;2022-09-02T06:53:17;2.35;;;1.95;;
16099;SDS011;8154;50.830;12.082;2022-09-02T06:56:01;1.92;;;1.80;;
16099;SDS011;8154;50.830;12.082;2022-09-02T06:58:51;2.00;;;1.80;;
16099;SDS011;8154;50.830;12.082;2022-09-02T07:01:35;1.90;;;1.80;;
16099;SDS011;8154;50.830;12.082;2022-09-02T07:04:20;2.08;;;1.90;;
16099;SDS011;8154;50.830;12.082;2022-09-02T07:07:24;4.15;;;2.00;;
16099;SDS011;8154;50.830;12.082;2022-09-02T07:10:09;2.30;;;2.10;;
16099;SDS011;8154;50.830;12.082;2022-09-02T07:12:54;2.78;;;2.00;;
16099;SDS011;8154;50.830;12.082;2022-09-02T07:15:39;2.78;;;2.00;;
16099;SDS011;8154;50.830;12.082;2022-09-02T07:18:24;2.20;;;2.00;;
16099;SDS011;8154;50.830;12.082;2022-09-02T07:21:09;3.20;;;1.92;;
16099;SDS011;8154;50.830;12.082;2022-09-02T07:23:54;2.25;;;2.05;;
16099;SDS011;8154;50.830;12.082;2022-09-02T07:26:41;2.08;;;1.90;;
16099;SDS011;8154;50.830;12.082;2022-09-02T07:29:25;2.95;;;1.80;;
16099;SDS011;8154;50.830;12.082;2022-09-02T07:32:09;1.92;;;1.83;;
16099;SDS011;8154;50.830;12.082;2022-09-02T07:34:53;3.00;;;2.10;;
16099;SDS011;8154;50.830;12.082;2022-09-02T07:37:37;2.28;;;2.08;;
16099;SDS011;8154;50.830;12.082;2022-09-02T07:40:22;2.15;;;1.75;;
16099;SDS011;8154;50.830;12.082;2022-09-02T07:43:08;2.00;;;1.80;;
16099;SDS011;8154;50.830;12.082;2022-09-02T07:45:53;3.72;;;2.00;;
16099;SDS011;8154;50.830;12.082;2022-09-02T07:48:38;2.42;;;1.90;;
16099;SDS011;8154;50.830;12.082;2022-09-02T07:51:24;3.05;;;1.77;;
16099;SDS011;8154;50.830;12.082;2022-09-02T07:54:09;2.17;;;1.98;;
16099;SDS011;8154;50.830;12.082;2022-09-02T07:56:55;2.28;;;2.08;;
16099;SDS011;8154;50.830;12.082;2022-09-02T07:59:40;3.08;;;2.05;;
16099;SDS011;8154;50.830;12.082;2022-09-02T08:02:25;3.40;;;1.90;;
16099;SDS011;8154;50.830;12.082;2022-09-02T08:05:09;2.65;;;1.90;;
16099;SDS011;8154;50.830;12.082;2022-09-02T08:07:55;1.92;;;1.80;;
16099;SDS011;8154;50.830;12.082;2022-09-02T08:10:39;2.85;;;1.80;;
16099;SDS011;8154;50.830;12.082;2022-09-02T08:13:25;2.10;;;1.90;;
16099;SDS011;8154;50.830;12.082;2022-09-02T08:16:10;2.53;;;1.70;;
16099;SDS011;8154;50.830;12.082;2022-09-02T08:18:55;2.22;;;1.80;;
16099;SDS011;8154;50.830;12.082;2022-09-02T08:21:41;2.22;;;1.77;;
16099;SDS011;8154;50.830;12.082;2022-09-02T08:24:25;2.78;;;1.83;;
16099;SDS011;8154;50.830;12.082;2022-09-02T08:27:14;2.88;;;1.90;;
16099;SDS011;8154;50.830;12.082;2022-09-02T08:29:58;2.22;;;1.98;;
16099;SDS011;8154;50.830;12.082;2022-09-02T08:32:43;2.20;;;1.90;;
16099;SDS011;8154;50.830;12.082;2022-09-02T08:35:27;2.20;;;1.90;;
16099;SDS011;8154;50.830;12.082;2022-09-02T08:38:11;1.90;;;1.80;;
16099;SDS011;8154;50.830;12.082;2022-09-02T08:40:55;2.78;;;1.92;;
16099;SDS011;8154;50.830;12.082;2022-09-02T08:43:41;2.00;;;1.80;;
16099;SDS011;8154;50.830;12.082;2022-09-02T08:46:27;3.30;;;1.75;;
16099;SDS011;8154;50.830;12.082;2022-09-02T08:52:14;2.15;;;1.80;;
16099;SDS011;8154;50.830;12.082;2022-09-02T08:55:06;2.97;;;1.90;;
16099;SDS011;8154;50.830;12.082;2022-09-02T08:57:55;4.00;;;1.88;;
16099;SDS011;8154;50.830;12.082;2022-09-02T09:00:40;2.80;;;1.88;;
16099;SDS011;8154;50.830;12.082;2022-09-02T09:03:28;1.70;;;1.60;;
16099;SDS011;8154;50.830;12.082;2022-09-02T09:06:51;1.73;;;1.50;;
16099;SDS011;8154;50.830;12.082;2022-09-02T09:09:44;2.65;;;1.75;;
16099;SDS011;8154;50.830;12.082;2022-09-02T09:12:54;2.28;;;1.60;;
16099;SDS011;8154;50.830;12.082;2022-09-02T09:15:46;1.90;;;1.67;;
16099;SDS011;8154;50.830;12.082;2022-09-02T09:18:56;1.90;;;1.65;;
16099;SDS011;8154;50.830;12.082;2022-09-02T09:21:37;3.42;;;1.63;;
16099;SDS011;8154;50.830;12.082;2022-09-02T09:24:32;1.60;;;1.50;;
16099;SDS011;8154;50.830;12.082;2022-09-02T09:27:21;2.92;;;1.52;;
16099;SDS011;8154;50.830;12.082;2022-09-02T09:30:06;1.60;;;1.50;;
16099;SDS011;8154;50.830;12.082;2022-09-02T09:32:53;1.60;;;1.40;;
16099;SDS011;8154;50.830;12.082;2022-09-02T09:35:47;2.08;;;1.60;;
16099;SDS011;8154;50.830;12.082;2022-09-02T09:38:33;2.20;;;1.55;;
16099;SDS011;8154;50.830;12.082;2022-09-02T09:41:22;1.52;;;1.42;;
16099;SDS011;8154;50.830;12.082;2022-09-02T09:44:07;1.58;;;1.40;;
16099;SDS011;8154;50.830;12.082;2022-09-02T09:47:01;1.48;;;1.25;;
16099;SDS011;8154;50.830;12.082;2022-09-02T09:49:49;1.63;;;1.40;;
16099;SDS011;8154;50.830;12.082;2022-09-02T09:52:36;1.67;;;1.20;;
16099;SDS011;8154;50.830;12.082;2022-09-02T09:55:20;1.30;;;1.20;;
16099;SDS011;8154;50.830;12.082;2022-09-02T09:58:08;1.95;;;1.30;;
16099;SDS011;8154;50.830;12.082;2022-09-02T10:00:53;2.03;;;1.30;;
16099;SDS011;8154;50.830;12.082;2022-09-02T10:03:59;1.38;;;1.15;;
16099;SDS011;8154;50.830;12.082;2022-09-02T10:06:46;1.55;;;1.10;;
16099;SDS011;8154;50.830;12.082;2022-09-02T10:09:34;1.13;;;1.02;;
16099;SDS011;8154;50.830;12.082;2022-09-02T10:12:30;1.10;;;1.00;;
16099;SDS011;8154;50.830;12.082;2022-09-02T10:15:24;1.30;;;1.20;;
16099;SDS011;8154;50.830;12.082;2022-09-02T10:21:43;1.63;;;1.05;;
16099;SDS011;8154;50.830;12.082;2022-09-02T10:28:07;1.10;;;1.00;;
16099;SDS011;8154;50.830;12.082;2022-09-02T10:34:55;1.20;;;1.02;;
16099;SDS011;8154;50.830;12.082;2022-09-02T10:47:03;1.10;;;1.00;;
16099;SDS011;8154;50.830;12.082;2022-09-02T10:50:10;0.90;;;0.90;;
16099;SDS011;8154;50.830;12.082;2022-09-02T10:58:38;1.63;;;1.00;;
16099;SDS011;8154;50.830;12.082;2022-09-02T11:01:27;1.60;;;1.02;;
16099;SDS011;8154;50.830;12.082;2022-09-02T11:07:21;1.75;;;1.00;;
16099;SDS011;8154;50.830;12.082;2022-09-02T11:10:15;1.30;;;0.80;;
16099;SDS011;8154;50.830;12.082;2022-09-02T11:13:13;1.10;;;1.00;;
16099;SDS011;8154;50.830;12.082;2022-09-02T11:16:37;2.30;;;1.00;;
16099;SDS011;8154;50.830;12.082;2022-09-02T11:22:16;1.20;;;0.95;;
16099;SDS011;8154;50.830;12.082;2022-09-02T11:25:20;1.00;;;0.90;;
16099;SDS011;8154;50.830;12.082;2022-09-02T11:28:51;1.27;;;1.00;;
16099;SDS011;8154;50.830;12.082;2022-09-02T11:31:34;1.20;;;1.00;;
16099;SDS011;8154;50.830;12.082;2022-09-02T11:37:31;1.10;;;1.00;;
16099;SDS011;8154;50.830;12.082;2022-09-02T11:40:27;2.30;;;1.02;;
16099;SDS011;8154;50.830;12.082;2022-09-02T11:55:05;0.73;;;0.73;;
16099;SDS011;8154;50.830;12.082;2022-09-02T11:57:54;0.90;;;0.80;;
16099;SDS011;8154;50.830;12.082;2022-09-02T12:03:42;0.95;;;0.80;;
16099;SDS011;8154;50.830;12.082;2022-09-02T12:09:50;0.80;;;0.80;;
16099;SDS011;8154;50.830;12.082;2022-09-02T12:15:21;0.95;;;0.80;;
16099;SDS011;8154;50.830;12.082;2022-09-02T12:21:15;1.80;;;0.80;;
16099;SDS011;8154;50.830;12.082;2022-09-02T12:32:11;0.82;;;0.80;;
16099;SDS011;8154;50.830;12.082;2022-09-02T12:35:33;0.85;;;0.70;;
16099;SDS011;8154;50.830;12.082;2022-09-02T12:38:28;1.95;;;0.80;;
16099;SDS011;8154;50.830;12.082;2022-09-02T12:41:18;0.80;;;0.80;;
16099;SDS011;8154;50.830;12.082;2022-09-02T12:44:21;0.90;;;0.77;;
16099;SDS011;8154;50.830;12.082;2022-09-02T12:50:10;2.25;;;0.80;;
16099;SDS011;8154;50.830;12.082;2022-09-02T12:53:24;1.60;;;0.80;;
16099;SDS011;8154;50.830;12.082;2022-09-02T12:58:58;1.05;;;0.90;;
16099;SDS011;8154;50.830;12.082;2022-09-02T13:01:44;1.30;;;0.80;;
16099;SDS011;8154;50.830;12.082;2022-09-02T13:07:39;1.10;;;0.90;;
16099;SDS011;8154;50.830;12.082;2022-09-02T13:20:42;0.90;;;0.90;;
16099;SDS011;8154;50.830;12.082;2022-09-02T13:27:00;1.08;;;0.80;;
16099;SDS011;8154;50.830;12.082;2022-09-02T13:33:42;2.25;;;0.90;;
16099;SDS011;8154;50.830;12.082;2022-09-02T13:36:28;1.27;;;1.08;;
16099;SDS011;8154;50.830;12.082;2022-09-02T13:39:33;1.10;;;1.00;;
16099;SDS011;8154;50.830;12.082;2022-09-02T13:42:21;0.80;;;0.80;;
16099;SDS011;8154;50.830;12.082;2022-09-02T13:45:11;1.30;;;0.90;;
16099;SDS011;8154;50.830;12.082;2022-09-02T13:48:01;1.08;;;0.90;;
16099;SDS011;8154;50.830;12.082;2022-09-02T13:50:51;1.00;;;0.90;;
16099;SDS011;8154;50.830;12.082;2022-09-02T13:53:42;0.90;;;0.90;;
16099;SDS011;8154;50.830;12.082;2022-09-02T13:56:30;1.10;;;1.00;;
16099;SDS011;8154;50.830;12.082;2022-09-02T13:59:29;0.90;;;0.90;;
16099;SDS011;8154;50.830;12.082;2022-09-02T14:02:25;1.05;;;0.95;;
16099;SDS011;8154;50.830;12.082;2022-09-02T14:05:12;1.13;;;1.00;;
16099;SDS011;8154;50.830;12.082;2022-09-02T14:08:04;1.48;;;1.02;;
16099;SDS011;8154;50.830;12.082;2022-09-02T14:10:54;1.60;;;1.00;;
16099;SDS011;8154;50.830;12.082;2022-09-02T14:13:40;2.22;;;1.00;;
16099;SDS011;8154;50.830;12.082;2022-09-02T14:16:34;1.13;;;1.00;;
16099;SDS011;8154;50.830;12.082;2022-09-02T14:22:04;1.00;;;0.95;;
16099;SDS011;8154;50.830;12.082;2022-09-02T14:24:48;0.93;;;0.90;;
16099;SDS011;8154;50.830;12.082;2022-09-02T14:27:33;0.80;;;0.80;;
16099;SDS011;8154;50.830;12.082;2022-09-02T14:30:25;1.15;;;1.00;;
16099;SDS011;8154;50.830;12.082;2022-09-02T14:39:13;1.02;;;0.93;;
16099;SDS011;8154;50.830;12.082;2022-09-02T14:41:59;0.90;;;0.90;;
16099;SDS011;8154;50.830;12.082;2022-09-02T14:44:45;1.13;;;0.93;;
16099;SDS011;8154;50.830;12.082;2022-09-02T14:47:29;1.00;;;0.80;;
16099;SDS011;8154;50.830;12.082;2022-09-02T14:50:21;3.25;;;1.00;;
16099;SDS011;8154;50.830;12.082;2022-09-02T14:53:10;1.02;;;1.00;;
16099;SDS011;8154;50.830;12.082;2022-09-02T14:56:02;1.02;;;0.90;;
16099;SDS011;8154;50.830;12.082;2022-09-02T14:58:48;0.95;;;0.82;;
16099;SDS011;8154;50.830;12.082;2022-09-02T15:01:36;1.23;;;1.00;;
16099;SDS011;8154;50.830;12.082;2022-09-02T15:04:22;1.63;;;0.90;;
16099;SDS011;8154;50.830;12.082;2022-09-02T15:07:07;0.95;;;0.85;;
16099;SDS011;8154;50.830;12.082;2022-09-02T15:09:52;0.95;;;0.90;;
16099;SDS011;8154;50.830;12.082;2022-09-02T15:12:39;1.23;;;1.10;;
16099;SDS011;8154;50.830;12.082;2022-09-02T15:15:28;0.80;;;0.80;;
16099;SDS011;8154;50.830;12.082;2022-09-02T15:18:12;0.98;;;0.90;;
16099;SDS011;8154;50.830;12.082;2022-09-02T15:20:57;1.48;;;1.00;;
16099;SDS011;8154;50.830;12.082;2022-09-02T15:23:41;2.30;;;0.98;;
16099;SDS011;8154;50.830;12.082;2022-09-02T15:26:26;0.90;;;0.90;;
16099;SDS011;8154;50.830;12.082;2022-09-02T15:29:11;1.00;;;0.90;;
16099;SDS011;8154;50.830;12.082;2022-09-02T15:31:56;0.82;;;0.73;;
16099;SDS011;8154;50.830;12.082;2022-09-02T15:34:41;2.30;;;1.00;;
16099;SDS011;8154;50.830;12.082;2022-09-02T15:37:25;1.02;;;0.93;;
16099;SDS011;8154;50.830;12.082;2022-09-02T15:40:10;1.00;;;0.90;;
16099;SDS011;8154;50.830;12.082;2022-09-02T15:42:55;1.10;;;1.00;;
16099;SDS011;8154;50.830;12.082;2022-09-02T15:45:43;0.90;;;0.90;;
16099;SDS011;8154;50.830;12.082;2022-09-02T15:48:32;1.20;;;0.90;;
16099;SDS011;8154;50.830;12.082;2022-09-02T15:51:17;0.93;;;0.90;;
16099;SDS011;8154;50.830;12.082;2022-09-02T15:54:04;1.08;;;0.80;;
16099;SDS011;8154;50.830;12.082;2022-09-02T15:56:56;1.00;;;0.90;;
16099;SDS011;8154;50.830;12.082;2022-09-02T15:59:42;1.35;;;0.93;;
16099;SDS011;8154;50.830;12.082;2022-09-02T16:02:26;0.98;;;0.80;;
16099;SDS011;8154;50.830;12.082;2022-09-02T16:05:11;1.85;;;0.90;;
16099;SDS011;8154;50.830;12.082;2022-09-02T16:07:56;1.30;;;0.90;;
16099;SDS011;8154;50.830;12.082;2022-09-02T16:10:41;1.13;;;0.90;;
16099;SDS011;8154;50.830;12.082;2022-09-02T16:13:28;0.80;;;0.80;;
16099;SDS011;8154;50.830;12.082;2022-09-02T16:16:13;1.33;;;0.88;;
16099;SDS011;8154;50.830;12.082;2022-09-02T16:18:57;0.90;;;0.90;;
16099;SDS011;8154;50.830;12.082;2022-09-02T16:21:42;1.08;;;0.85;;
16099;SDS011;8154;50.830;12.082;2022-09-02T16:24:26;0.80;;;0.80;;
16099;SDS011;8154;50.830;12.082;2022-09-02T16:27:11;0.90;;;0.90;;
16099;SDS011;8154;50.830;12.082;2022-09-02T16:29:55;0.80;;;0.80;;
16099;SDS011;8154;50.830;12.082;2022-09-02T16:32:39;0.65;;;0.63;;
16099;SDS011;8154;50.830;12.082;2022-09-02T16:35:24;1.23;;;1.00;;
16099;SDS011;8154;50.830;12.082;2022-09-02T16:38:08;0.93;;;0.90;;
16099;SDS011;8154;50.830;12.082;2022-09-02T16:40:53;0.80;;;0.80;;
16099;SDS011;8154;50.830;12.082;2022-09-02T16:43:40;2.85;;;0.90;;
16099;SDS011;8154;50.830;12.082;2022-09-02T16:46:24;1.70;;;1.15;;
16099;SDS011;8154;50.830;12.082;2022-09-02T16:49:11;1.77;;;0.80;;
16099;SDS011;8154;50.830;12.082;2022-09-02T16:51:56;0.90;;;0.90;;
16099;SDS011;8154;50.830;12.082;2022-09-02T16:54:41;1.00;;;1.00;;
16099;SDS011;8154;50.830;12.082;2022-09-02T16:57:26;1.38;;;1.00;;
16099;SDS011;8154;50.830;12.082;2022-09-02T17:00:10;0.88;;;0.80;;
16099;SDS011;8154;50.830;12.082;2022-09-02T17:02:55;1.23;;;1.00;;
16099;SDS011;8154;50.830;12.082;2022-09-02T17:05:40;0.88;;;0.88;;
16099;SDS011;8154;50.830;12.082;2022-09-02T17:08:25;1.13;;;0.95;;
16099;SDS011;8154;50.830;12.082;2022-09-02T17:11:51;1.00;;;0.82;;
16099;SDS011;8154;50.830;12.082;2022-09-02T17:14:23;0.90;;;0.90;;
16099;SDS011;8154;50.830;12.082;2022-09-02T17:17:08;1.20;;;0.90;;
16099;SDS011;8154;50.830;12.082;2022-09-02T17:19:57;1.02;;;1.00;;
16099;SDS011;8154;50.830;12.082;2022-09-02T17:22:42;1.00;;;0.90;;
16099;SDS011;8154;50.830;12.082;2022-09-02T17:25:27;1.00;;;0.90;;
16099;SDS011;8154;50.830;12.082;2022-09-02T17:28:12;0.80;;;0.80;;
16099;SDS011;8154;50.830;12.082;2022-09-02T17:30:56;0.80;;;0.80;;
16099;SDS011;8154;50.830;12.082;2022-09-02T17:33:41;0.85;;;0.85;;
16099;SDS011;8154;50.830;12.082;2022-09-02T17:36:27;1.10;;;1.00;;
16099;SDS011;8154;50.830;12.082;2022-09-02T17:39:15;0.88;;;0.88;;
16099;SDS011;8154;50.830;12.082;2022-09-02T17:42:01;0.90;;;0.90;;
16099;SDS011;8154;50.830;12.082;2022-09-02T17:44:48;0.80;;;0.80;;
16099;SDS011;8154;50.830;12.082;2022-09-02T17:47:32;1.88;;;0.88;;
16099;SDS011;8154;50.830;12.082;2022-09-02T17:50:16;1.35;;;0.80;;
16099;SDS011;8154;50.830;12.082;2022-09-02T17:53:01;0.80;;;0.80;;
16099;SDS011;8154;50.830;12.082;2022-09-02T17:55:45;0.90;;;0.90;;
16099;SDS011;8154;50.830;12.082;2022-09-02T17:58:36;0.93;;;0.90;;
16099;SDS011;8154;50.830;12.082;2022-09-02T18:01:33;0.90;;;0.90;;
16099;SDS011;8154;50.830;12.082;2022-09-02T18:07:17;1.23;;;0.80;;
16099;SDS011;8154;50.830;12.082;2022-09-02T18:10:24;1.20;;;0.90;;
16099;SDS011;8154;50.830;12.082;2022-09-02T18:13:10;0.90;;;0.90;;
16099;SDS011;8154;50.830;12.082;2022-09-02T18:19:06;1.27;;;0.90;;
16099;SDS011;8154;50.830;12.082;2022-09-02T18:48:10;1.42;;;1.00;;
16099;SDS011;8154;50.830;12.082;2022-09-02T18:50:56;2.55;;;0.88;;
16099;SDS011;8154;50.830;12.082;2022-09-02T18:53:47;0.90;;;0.90;;
16099;SDS011;8154;50.830;12.082;2022-09-02T18:56:35;1.00;;;0.90;;
16099;SDS011;8154;50.830;12.082;2022-09-02T19:03:07;1.00;;;0.90;;
16099;SDS011;8154;50.830;12.082;2022-09-02T19:05:32;1.00;;;0.95;;
16099;SDS011;8154;50.830;12.082;2022-09-02T19:08:20;1.33;;;1.05;;
16099;SDS011;8154;50.830;12.082;2022-09-02T19:11:14;0.90;;;0.90;;
16099;SDS011;8154;50.830;12.082;2022-09-02T19:14:17;0.90;;;0.90;;